Time;durP1;ratioP1;P1;durP2;ratioP2;P2;SDS_P1;SDS_P2;PMS_P1;PMS_P2;Temp;Humidity;BMP_temperature;BMP_pressure;BME280_temperature;BME280_humidity;BME280_pressure;Samples;Min_cycle;Max_cycle;Signal;HPM_P1;HPM_P2
2020/12/18 00:01:59;;;;;;;46.47;20.75;;;;;;;6.51;100.00;102437.81;5016210;28;20037;-72
2020/12/18 00:04:46;;;;;;;46.90;22.70;;;;;;;6.74;100.00;102444.47;5017202;28;20030;-72
2020/12/18 00:07:31;;;;;;;46.60;21.95;;;;;;;6.86;100.00;102442.19;5017043;28;20061;-73
2020/12/18 00:10:17;;;;;;;48.90;22.67;;;;;;;7.00;100.00;102440.81;5016315;28;20029;-73
2020/12/18 00:13:03;;;;;;;40.83;19.52;;;;;;;6.38;100.00;102435.75;5015333;28;20037;-73
2020/12/18 00:15:51;;;;;;;47.08;21.55;;;;;;;6.67;100.00;102434.78;5015908;28;20068;-74
2020/12/18 00:18:37;;;;;;;42.55;20.55;;;;;;;6.74;100.00;102439.28;5015657;28;20092;-73
2020/12/18 00:21:23;;;;;;;45.75;21.65;;;;;;;6.80;100.00;102442.06;5015874;28;20017;-73
2020/12/18 00:24:09;;;;;;;43.38;20.50;;;;;;;6.86;100.00;102440.47;5015486;28;20119;-73
2020/12/18 00:26:54;;;;;;;42.45;20.25;;;;;;;6.81;100.00;102446.41;5015623;28;20025;-73
2020/12/18 00:29:40;;;;;;;43.33;20.95;;;;;;;6.96;100.00;102447.69;5016946;28;20080;-73
2020/12/18 00:32:26;;;;;;;42.63;20.98;;;;;;;6.64;100.00;102445.09;5015557;28;20025;-73
2020/12/18 00:35:12;;;;;;;38.28;19.13;;;;;;;6.73;100.00;102445.34;5015728;28;20040;-73
2020/12/18 00:37:58;;;;;;;41.08;20.05;;;;;;;7.16;100.00;102441.22;5015770;28;20034;-72
2020/12/18 00:40:45;;;;;;;43.42;20.98;;;;;;;6.83;100.00;102445.59;5015492;28;20029;-72
2020/12/18 00:43:31;;;;;;;47.97;23.20;;;;;;;6.84;100.00;102434.38;5016562;28;20389;-73
2020/12/18 00:46:16;;;;;;;43.38;21.70;;;;;;;6.97;100.00;102436.41;5014605;28;20432;-72
2020/12/18 00:49:02;;;;;;;41.30;21.27;;;;;;;6.83;100.00;102431.72;5015006;28;20481;-72
2020/12/18 00:51:52;;;;;;;49.35;23.02;;;;;;;6.98;100.00;102437.28;5015040;28;20108;-73
2020/12/18 00:54:38;;;;;;;47.75;22.65;;;;;;;6.97;100.00;102430.31;5015294;28;20026;-73
2020/12/18 00:57:25;;;;;;;43.03;22.42;;;;;;;6.85;100.00;102437.84;5015777;28;20103;-73
2020/12/18 01:00:12;;;;;;;39.55;19.63;;;;;;;6.91;100.00;102433.66;5016249;28;20450;-73
2020/12/18 01:02:58;;;;;;;36.83;19.75;;;;;;;7.23;100.00;102435.31;5014987;28;20454;-73
2020/12/18 01:05:44;;;;;;;40.03;18.85;;;;;;;7.32;100.00;102437.25;5015190;28;20398;-73
2020/12/18 01:08:29;;;;;;;38.83;19.67;;;;;;;6.94;100.00;102430.22;5014756;28;20520;-73
2020/12/18 01:11:15;;;;;;;38.60;19.90;;;;;;;6.72;100.00;102433.16;5014984;28;20401;-73
2020/12/18 01:14:01;;;;;;;35.55;18.40;;;;;;;6.41;100.00;102430.59;5016013;28;20022;-73
2020/12/18 01:16:51;;;;;;;41.33;20.83;;;;;;;6.86;100.00;102436.97;5014577;28;20037;-73
2020/12/18 01:19:37;;;;;;;37.40;19.90;;;;;;;6.45;100.00;102437.66;5015344;28;20040;-73
2020/12/18 01:22:23;;;;;;;44.15;21.13;;;;;;;6.58;100.00;102432.81;5014870;28;20116;-72
2020/12/18 01:25:09;;;;;;;42.78;20.77;;;;;;;6.90;100.00;102424.06;5014567;28;20084;-73
2020/12/18 01:27:55;;;;;;;40.95;20.15;;;;;;;6.70;100.00;102417.50;5015615;28;20431;-72
2020/12/18 01:30:40;;;;;;;43.75;20.15;;;;;;;6.50;100.00;102421.31;5014353;28;20099;-72
2020/12/18 01:33:26;;;;;;;47.08;22.45;;;;;;;7.24;100.00;102417.94;5016049;28;20034;-73
2020/12/18 01:36:12;;;;;;;42.63;21.63;;;;;;;6.73;100.00;102411.47;5015287;28;20034;-73
2020/12/18 01:38:58;;;;;;;45.38;22.13;;;;;;;6.78;100.00;102420.28;5014657;28;20022;-72
2020/12/18 01:41:44;;;;;;;56.92;24.73;;;;;;;6.71;100.00;102416.66;5014513;28;20103;-72
2020/12/18 01:44:30;;;;;;;46.72;22.63;;;;;;;7.33;100.00;102415.53;5014142;28;20041;-73
2020/12/18 01:47:27;;;;;;;43.92;21.33;;;;;;;6.86;100.00;102410.94;5014086;28;20037;-73
2020/12/18 01:50:13;;;;;;;52.33;24.80;;;;;;;6.46;100.00;102410.75;5014115;28;20451;-73
2020/12/18 01:52:59;;;;;;;50.22;23.30;;;;;;;7.01;100.00;102419.13;5014452;28;20426;-72
2020/12/18 01:55:45;;;;;;;49.63;23.75;;;;;;;7.24;100.00;102417.94;5014320;28;20026;-72
2020/12/18 01:58:33;;;;;;;50.03;24.25;;;;;;;7.30;100.00;102418.97;5013051;28;20109;-73
2020/12/18 02:01:19;;;;;;;53.33;25.45;;;;;;;7.38;100.00;102411.31;5013879;28;20477;-73
2020/12/18 02:04:06;;;;;;;59.55;26.65;;;;;;;7.26;100.00;102411.03;5015108;28;20462;-72
2020/12/18 02:06:54;;;;;;;62.95;27.40;;;;;;;7.53;100.00;102409.94;5013669;28;20032;-72
2020/12/18 02:09:40;;;;;;;65.15;30.08;;;;;;;7.23;100.00;102414.44;5015155;28;20033;-72
2020/12/18 02:12:26;;;;;;;58.90;27.48;;;;;;;6.89;100.00;102417.13;5013266;28;20026;-74
2020/12/18 02:15:12;;;;;;;56.90;27.67;;;;;;;7.20;100.00;102416.13;5013862;28;20026;-73
2020/12/18 02:17:59;;;;;;;57.55;26.88;;;;;;;7.13;100.00;102417.69;5013713;28;20037;-72
2020/12/18 02:20:45;;;;;;;57.38;27.30;;;;;;;7.05;100.00;102410.53;5014862;28;20049;-74
2020/12/18 02:23:31;;;;;;;55.92;26.92;;;;;;;6.83;100.00;102418.69;5014111;28;20025;-72
2020/12/18 02:26:18;;;;;;;47.42;22.80;;;;;;;6.47;100.00;102416.00;5014304;28;20105;-72
2020/12/18 02:29:04;;;;;;;48.30;23.23;;;;;;;6.38;100.00;102415.78;5015047;28;20026;-73
2020/12/18 02:31:50;;;;;;;54.65;24.88;;;;;;;7.08;100.00;102423.66;5014049;28;20502;-74
2020/12/18 02:34:36;;;;;;;53.97;24.52;;;;;;;7.47;100.00;102421.97;5014226;28;20116;-73
2020/12/18 02:37:21;;;;;;;59.38;26.85;;;;;;;6.98;100.00;102416.44;5013900;28;20046;-73
2020/12/18 02:40:07;;;;;;;45.38;21.95;;;;;;;7.23;100.00;102421.41;5014848;28;20033;-73
2020/12/18 02:42:53;;;;;;;40.50;20.58;;;;;;;7.14;100.00;102414.25;5013389;28;20033;-73
2020/12/18 02:45:39;;;;;;;40.50;21.20;;;;;;;7.00;100.00;102426.09;5013571;28;20370;-73
2020/12/18 02:48:26;;;;;;;38.45;20.15;;;;;;;6.82;100.00;102430.81;5013507;28;20397;-73
2020/12/18 02:51:12;;;;;;;36.20;18.65;;;;;;;7.15;100.00;102426.41;5013442;28;20030;-73
2020/12/18 02:53:57;;;;;;;41.42;20.13;;;;;;;7.34;100.00;102426.00;5013500;28;20030;-73
2020/12/18 02:56:43;;;;;;;40.25;19.85;;;;;;;7.36;100.00;102423.44;5014253;28;20156;-72
2020/12/18 02:59:29;;;;;;;37.88;17.70;;;;;;;6.92;100.00;102421.50;5013820;28;20374;-72
2020/12/18 03:02:14;;;;;;;34.97;18.55;;;;;;;7.45;100.00;102432.34;5013342;28;20053;-73
2020/12/18 03:05:00;;;;;;;27.35;15.93;;;;;;;7.14;100.00;102436.81;5013109;28;20417;-73
2020/12/18 03:07:46;;;;;;;32.10;16.50;;;;;;;7.18;100.00;102436.94;5013596;28;20339;-72
2020/12/18 03:10:32;;;;;;;31.17;17.33;;;;;;;7.69;100.00;102435.50;5017072;28;20335;-72
2020/12/18 03:13:17;;;;;;;30.23;17.27;;;;;;;7.57;100.00;102436.94;5017874;28;20030;-73
2020/12/18 03:16:03;;;;;;;30.63;16.75;;;;;;;7.29;100.00;102438.06;5017800;28;20104;-73
2020/12/18 03:18:49;;;;;;;31.77;17.10;;;;;;;7.24;100.00;102438.81;5016621;28;20053;-73
2020/12/18 03:21:35;;;;;;;32.88;17.20;;;;;;;7.41;100.00;102442.66;5016988;28;20025;-72
2020/12/18 03:24:20;;;;;;;30.63;16.73;;;;;;;7.32;100.00;102442.47;5017066;28;20022;-72
2020/12/18 03:27:06;;;;;;;32.40;17.52;;;;;;;7.20;100.00;102442.19;5017212;28;20033;-74
2020/12/18 03:29:52;;;;;;;32.53;18.13;;;;;;;7.08;100.00;102439.28;5016755;28;20022;-73
2020/12/18 03:32:38;;;;;;;32.30;17.63;;;;;;;7.26;100.00;102440.59;5016492;28;20032;-73
2020/12/18 03:35:23;;;;;;;31.17;17.52;;;;;;;7.42;100.00;102432.28;5017059;28;20030;-73
2020/12/18 03:38:09;;;;;;;34.55;17.35;;;;;;;7.07;100.00;102440.13;5017013;28;20124;-73
2020/12/18 03:40:55;;;;;;;34.83;17.75;;;;;;;6.98;100.00;102430.34;5017022;28;20116;-73
2020/12/18 03:43:41;;;;;;;34.97;18.00;;;;;;;6.95;100.00;102434.63;5016490;28;20033;-73
2020/12/18 03:46:27;;;;;;;36.20;19.60;;;;;;;6.66;100.00;102438.19;5017373;28;20025;-72
2020/12/18 03:49:12;;;;;;;35.35;19.63;;;;;;;6.87;100.00;102438.78;5017527;28;20046;-74
2020/12/18 03:51:58;;;;;;;38.08;20.08;;;;;;;6.81;100.00;102433.38;5016694;28;20040;-72
2020/12/18 03:54:44;;;;;;;35.42;19.60;;;;;;;7.14;100.00;102432.50;5015551;28;20026;-73
2020/12/18 03:57:30;;;;;;;36.80;19.38;;;;;;;7.08;100.00;102437.53;5016632;28;20026;-73
2020/12/18 04:00:15;;;;;;;39.92;20.77;;;;;;;7.30;100.00;102436.31;5016526;28;20061;-72
2020/12/18 04:03:01;;;;;;;35.55;18.52;;;;;;;7.45;100.00;102434.06;5015737;28;20025;-72
2020/12/18 04:05:47;;;;;;;40.38;19.40;;;;;;;7.34;100.00;102432.94;5016177;28;20040;-73
2020/12/18 04:08:33;;;;;;;40.50;20.45;;;;;;;7.06;100.00;102433.13;5017197;28;20080;-73
2020/12/18 04:11:18;;;;;;;42.95;22.13;;;;;;;6.99;100.00;102436.47;5015572;28;20026;-73
2020/12/18 04:14:04;;;;;;;38.38;20.10;;;;;;;7.22;100.00;102435.25;5016126;28;20029;-72
2020/12/18 04:16:50;;;;;;;37.63;19.77;;;;;;;7.12;100.00;102441.97;5017236;28;20030;-72
2020/12/18 04:19:36;;;;;;;38.72;20.67;;;;;;;7.46;100.00;102439.31;5015203;28;20018;-72
2020/12/18 04:22:21;;;;;;;35.70;19.10;;;;;;;7.22;100.00;102436.16;5016048;28;20052;-72
2020/12/18 04:25:07;;;;;;;37.70;21.35;;;;;;;7.32;100.00;102437.25;5015885;28;20041;-73
2020/12/18 04:27:53;;;;;;;35.30;19.45;;;;;;;7.11;100.00;102437.63;5015848;28;20018;-73
2020/12/18 04:30:39;;;;;;;33.97;19.15;;;;;;;7.26;100.00;102432.78;5015437;28;20068;-73
2020/12/18 04:33:24;;;;;;;39.08;20.80;;;;;;;6.79;100.00;102435.09;5016383;28;20453;-73
2020/12/18 04:36:10;;;;;;;37.42;20.60;;;;;;;7.14;100.00;102442.03;5016779;28;20033;-73
2020/12/18 04:38:56;;;;;;;39.38;20.63;;;;;;;7.31;100.00;102433.75;5015693;28;20036;-73
2020/12/18 04:41:42;;;;;;;37.10;21.15;;;;;;;7.35;100.00;102439.94;5015344;28;20462;-72
2020/12/18 04:44:28;;;;;;;34.17;19.38;;;;;;;7.14;100.00;102432.50;5015360;28;20443;-73
2020/12/18 04:47:14;;;;;;;36.05;19.25;;;;;;;7.06;100.00;102435.75;5015238;28;20111;-73
2020/12/18 04:50:01;;;;;;;36.60;20.35;;;;;;;7.22;100.00;102440.47;5014832;28;20045;-73
2020/12/18 04:52:47;;;;;;;35.38;19.48;;;;;;;6.98;100.00;102437.28;5016225;28;20021;-73
2020/12/18 04:55:35;;;;;;;34.80;19.52;;;;;;;7.32;100.00;102437.25;5015177;28;20029;-73
2020/12/18 04:58:24;;;;;;;41.03;22.05;;;;;;;7.10;100.00;102438.47;5015262;28;20030;-73
2020/12/18 05:01:10;;;;;;;33.30;18.92;;;;;;;7.07;100.00;102442.75;5014955;28;20429;-73
2020/12/18 05:03:58;;;;;;;34.72;19.38;;;;;;;6.91;100.00;102451.03;5015850;28;20168;-72
2020/12/18 05:06:43;;;;;;;39.08;20.23;;;;;;;7.37;100.00;102448.66;5015637;28;20053;-72
2020/12/18 05:09:29;;;;;;;34.92;18.63;;;;;;;6.93;100.00;102445.00;5015264;28;20060;-72
2020/12/18 05:12:15;;;;;;;35.58;20.02;;;;;;;7.22;100.00;102440.47;5014694;28;20049;-73
2020/12/18 05:15:03;;;;;;;32.10;18.30;;;;;;;7.38;100.00;102453.03;5014818;28;20112;-73
2020/12/18 05:17:51;;;;;;;34.97;19.35;;;;;;;7.36;100.00;102458.19;5014380;28;20026;-73
2020/12/18 05:20:37;;;;;;;33.70;18.98;;;;;;;6.66;100.00;102457.31;5015520;28;20030;-73
2020/12/18 05:23:23;;;;;;;32.67;19.05;;;;;;;7.16;100.00;102459.44;5014469;28;20058;-73
2020/12/18 05:26:10;;;;;;;31.73;18.20;;;;;;;6.95;100.00;102455.47;5014475;28;20030;-72
2020/12/18 05:29:04;;;;;;;34.63;19.63;;;;;;;7.05;100.00;102454.84;5015023;28;20026;-72
2020/12/18 05:31:50;;;;;;;36.10;19.33;;;;;;;6.98;100.00;102459.03;5015359;28;20037;-72
2020/12/18 05:34:39;;;;;;;37.15;19.17;;;;;;;7.31;100.00;102461.56;5014750;28;20366;-72
2020/12/18 05:37:34;;;;;;;34.58;18.65;;;;;;;7.23;100.00;102465.72;5014566;28;20057;-72
2020/12/18 05:40:20;;;;;;;34.03;18.70;;;;;;;7.13;100.00;102471.53;5015579;28;20041;-72
2020/12/18 05:43:07;;;;;;;34.63;18.98;;;;;;;7.12;100.00;102467.19;5013840;28;20030;-73
2020/12/18 05:45:53;;;;;;;36.95;20.48;;;;;;;7.23;100.00;102466.59;5016124;28;20026;-73
2020/12/18 05:48:38;;;;;;;33.47;17.95;;;;;;;7.21;100.00;102468.28;5015022;28;20060;-75
2020/12/18 05:51:36;;;;;;;35.78;18.02;;;;;;;7.21;100.00;102475.22;5014737;28;20502;-74
2020/12/18 05:54:30;;;;;;;36.80;18.83;;;;;;;6.80;100.00;102474.22;5013811;28;20030;-72
2020/12/18 05:57:16;;;;;;;34.15;17.75;;;;;;;6.95;100.00;102478.94;5013981;28;20451;-72
2020/12/18 06:00:03;;;;;;;34.95;18.63;;;;;;;7.16;100.00;102482.06;5014076;28;20049;-72
2020/12/18 06:02:55;;;;;;;35.05;19.80;;;;;;;6.98;100.00;102482.47;5013806;28;20029;-72
2020/12/18 06:05:45;;;;;;;34.60;18.73;;;;;;;7.32;100.00;102485.03;5013938;28;20100;-73
2020/12/18 06:08:32;;;;;;;34.95;19.50;;;;;;;7.14;100.00;102482.00;5013927;28;20083;-73
2020/12/18 06:11:19;;;;;;;35.55;19.27;;;;;;;6.43;100.00;102481.00;5014843;28;20034;-73
2020/12/18 06:14:08;;;;;;;35.95;19.75;;;;;;;6.77;100.00;102488.84;5013015;28;20365;-72
2020/12/18 06:16:55;;;;;;;39.72;20.52;;;;;;;6.53;100.00;102491.69;5014966;28;20109;-72
2020/12/18 06:19:43;;;;;;;34.65;19.88;;;;;;;6.61;100.00;102491.91;5013908;28;20034;-72
2020/12/18 06:22:29;;;;;;;37.22;20.70;;;;;;;6.49;100.00;102488.97;5015051;28;20110;-73
2020/12/18 06:25:15;;;;;;;32.88;18.67;;;;;;;6.49;100.00;102495.06;5013880;28;20120;-73
2020/12/18 06:28:02;;;;;;;33.92;19.13;;;;;;;7.02;100.00;102496.44;5013618;28;20458;-73
2020/12/18 06:31:22;;;;;;;31.08;18.25;;;;;;;6.55;100.00;102496.97;5014179;28;20108;-73
2020/12/18 06:34:10;;;;;;;33.83;18.40;;;;;;;6.91;100.00;102487.50;4990967;28;20037;-73
2020/12/18 06:36:58;;;;;;;33.80;18.38;;;;;;;6.71;100.00;102484.38;5014234;28;20075;-73
2020/12/18 06:39:43;;;;;;;30.45;17.45;;;;;;;6.93;100.00;102480.59;5014870;28;20433;-73
2020/12/18 06:42:30;;;;;;;30.75;17.13;;;;;;;6.45;100.00;102484.50;5012682;28;20516;-73
2020/12/18 06:45:15;;;;;;;29.50;16.92;;;;;;;6.59;100.00;102499.66;5013345;28;20432;-72
2020/12/18 06:48:27;;;;;;;26.88;16.90;;;;;;;7.02;100.00;102496.44;5013063;28;20105;-73
2020/12/18 06:51:29;;;;;;;31.75;18.00;;;;;;;6.98;100.00;102502.44;5013415;28;20552;-74
2020/12/18 06:54:15;;;;;;;28.58;17.65;;;;;;;6.11;100.00;102515.66;5013313;28;20034;-72
2020/12/18 06:57:19;;;;;;;27.13;16.38;;;;;;;6.70;100.00;102500.84;5014123;28;20060;-73
2020/12/18 07:00:20;;;;;;;29.65;17.98;;;;;;;6.95;100.00;102510.19;5013121;28;20029;-73
2020/12/18 07:03:06;;;;;;;28.17;16.77;;;;;;;7.07;100.00;102515.72;5012974;28;20026;-73
2020/12/18 07:05:58;;;;;;;29.70;17.58;;;;;;;7.17;100.00;102517.69;5014462;28;20087;-73
2020/12/18 07:08:46;;;;;;;28.48;16.40;;;;;;;7.11;100.00;102514.94;5014014;28;20033;-74
2020/12/18 07:11:34;;;;;;;29.58;16.77;;;;;;;7.48;100.00;102520.22;5013379;28;20347;-73
2020/12/18 07:14:25;;;;;;;25.55;15.40;;;;;;;6.84;100.00;102522.94;5012909;28;20096;-73
2020/12/18 07:17:12;;;;;;;27.13;16.08;;;;;;;6.69;100.00;102524.25;5012898;28;20026;-73
2020/12/18 07:19:57;;;;;;;27.85;16.27;;;;;;;6.55;100.00;102533.41;5013034;28;20033;-73
2020/12/18 07:22:43;;;;;;;28.33;17.23;;;;;;;7.06;100.00;102524.34;5013071;28;20044;-74
2020/12/18 07:25:29;;;;;;;29.13;16.63;;;;;;;6.84;100.00;102525.53;5012189;28;20129;-73
2020/12/18 07:28:16;;;;;;;39.28;22.58;;;;;;;7.25;100.00;102521.38;5013039;28;20021;-72
2020/12/18 07:31:01;;;;;;;31.27;18.25;;;;;;;7.37;100.00;102526.88;5012507;28;20462;-72
2020/12/18 07:33:57;;;;;;;30.48;18.42;;;;;;;7.41;100.00;102527.00;5012775;28;20100;-74
2020/12/18 07:36:43;;;;;;;29.73;18.25;;;;;;;7.12;100.00;102529.75;5013006;28;20458;-72
2020/12/18 07:39:29;;;;;;;35.83;20.70;;;;;;;6.96;100.00;102528.47;5012739;28;20029;-73
2020/12/18 07:42:15;;;;;;;35.90;19.25;;;;;;;6.54;100.00;102529.91;5012887;28;20025;-73
2020/12/18 07:45:08;;;;;;;33.08;17.98;;;;;;;6.70;100.00;102526.00;5012549;28;20037;-72
2020/12/18 07:47:54;;;;;;;30.02;17.77;;;;;;;6.72;100.00;102530.44;5014126;28;20029;-73
2020/12/18 07:50:40;;;;;;;35.65;20.73;;;;;;;7.05;100.00;102527.81;5013668;28;20104;-74
2020/12/18 07:53:30;;;;;;;41.03;23.83;;;;;;;7.30;100.00;102540.59;5012757;28;20378;-74
2020/12/18 07:56:21;;;;;;;32.95;19.30;;;;;;;7.21;100.00;102536.06;5016122;28;20068;-73
2020/12/18 07:59:08;;;;;;;31.02;17.88;;;;;;;7.09;100.00;102534.88;5016427;28;20065;-72
2020/12/18 08:01:55;;;;;;;31.35;18.27;;;;;;;7.20;100.00;102541.25;5015934;28;20362;-74
2020/12/18 08:04:43;;;;;;;31.02;17.73;;;;;;;6.92;100.00;102528.34;5016850;28;20068;-73
2020/12/18 08:07:30;;;;;;;32.80;18.02;;;;;;;6.79;100.00;102539.28;5017977;28;20484;-72
2020/12/18 08:10:17;;;;;;;36.17;18.85;;;;;;;7.08;100.00;102540.94;5017288;28;20041;-73
2020/12/18 08:13:02;;;;;;;36.60;20.10;;;;;;;7.31;100.00;102542.41;5015903;28;20347;-73
2020/12/18 08:15:48;;;;;;;34.80;20.02;;;;;;;7.30;100.00;102540.59;5016010;28;20029;-73
2020/12/18 08:18:35;;;;;;;37.83;21.35;;;;;;;7.21;100.00;102549.09;5015388;28;20339;-72
2020/12/18 08:21:23;;;;;;;40.58;22.15;;;;;;;7.32;100.00;102544.16;5016148;28;20469;-72
2020/12/18 08:24:29;;;;;;;41.80;22.55;;;;;;;7.10;100.00;102540.13;5015648;28;20052;-72
2020/12/18 08:27:21;;;;;;;37.00;21.58;;;;;;;7.14;100.00;102541.97;5015654;28;20018;-73
2020/12/18 08:30:09;;;;;;;39.55;22.30;;;;;;;7.13;100.00;102545.41;5014819;28;20037;-73
2020/12/18 08:32:56;;;;;;;41.83;22.17;;;;;;;7.09;100.00;102545.28;5015540;28;20378;-72
2020/12/18 08:35:42;;;;;;;41.90;23.58;;;;;;;6.95;100.00;102546.66;5015892;28;20057;-72
2020/12/18 08:38:28;;;;;;;41.28;23.98;;;;;;;6.85;100.00;102548.16;5015419;28;20029;-73
2020/12/18 08:41:14;;;;;;;39.25;22.17;;;;;;;6.86;100.00;102544.69;5015319;28;20057;-72
2020/12/18 08:44:07;;;;;;;37.38;21.52;;;;;;;6.36;100.00;102546.75;5014820;28;20033;-74
2020/12/18 08:46:53;;;;;;;42.22;24.27;;;;;;;6.48;100.00;102542.78;5015858;28;20029;-73
2020/12/18 08:49:39;;;;;;;43.40;25.52;;;;;;;6.32;100.00;102539.69;5015892;28;20065;-73
2020/12/18 08:52:29;;;;;;;45.45;25.02;;;;;;;6.44;100.00;102540.03;5015212;28;20121;-73
2020/12/18 08:55:21;;;;;;;42.20;24.65;;;;;;;6.48;100.00;102536.69;5015991;28;20176;-72
2020/12/18 08:58:09;;;;;;;42.20;23.08;;;;;;;6.34;100.00;102540.63;5016096;28;20030;-74
2020/12/18 09:00:54;;;;;;;42.50;22.83;;;;;;;6.72;100.00;102539.97;5014278;28;20029;-74
2020/12/18 09:03:40;;;;;;;42.67;24.42;;;;;;;6.70;100.00;102542.50;5015040;28;20100;-72
2020/12/18 09:06:28;;;;;;;39.58;22.40;;;;;;;6.60;100.00;102527.50;5015967;28;20088;-72
2020/12/18 09:09:13;;;;;;;40.47;22.95;;;;;;;6.50;100.00;102540.19;5015896;28;20032;-72
2020/12/18 09:12:15;;;;;;;39.33;23.15;;;;;;;6.81;100.00;102528.06;5014974;28;20034;-73
2020/12/18 09:15:20;;;;;;;39.80;22.13;;;;;;;6.59;100.00;102536.13;5015069;28;20057;-72
2020/12/18 09:18:11;;;;;;;41.13;23.52;;;;;;;6.71;100.00;102533.00;5015381;28;20507;-72
2020/12/18 09:21:08;;;;;;;41.80;23.48;;;;;;;7.01;100.00;102536.38;5016210;28;20104;-72
2020/12/18 09:23:53;;;;;;;40.25;24.13;;;;;;;6.80;100.00;102528.91;5014656;28;20378;-72
2020/12/18 09:26:39;;;;;;;38.88;21.92;;;;;;;7.00;100.00;102527.72;5014702;28;20041;-72
2020/12/18 09:29:25;;;;;;;32.65;20.42;;;;;;;6.46;100.00;102538.34;5014279;28;20036;-72
2020/12/18 09:32:14;;;;;;;33.75;20.80;;;;;;;6.37;100.00;102538.09;5015370;28;20028;-73
2020/12/18 09:34:59;;;;;;;33.90;21.88;;;;;;;6.49;100.00;102528.91;5015359;28;20033;-71
2020/12/18 09:37:45;;;;;;;34.78;21.60;;;;;;;6.54;100.00;102527.31;5014272;28;20041;-74
2020/12/18 09:40:31;;;;;;;36.55;22.15;;;;;;;6.75;100.00;102532.22;5015373;28;20110;-73
2020/12/18 09:43:18;;;;;;;37.97;24.40;;;;;;;6.96;100.00;102527.56;5014161;28;20096;-74
2020/12/18 09:46:11;;;;;;;32.03;20.30;;;;;;;6.93;100.00;102527.50;5013899;28;20025;-74
2020/12/18 09:48:56;;;;;;;32.97;20.92;;;;;;;6.90;100.00;102523.09;5015091;28;20050;-75
2020/12/18 09:51:46;;;;;;;34.63;21.27;;;;;;;6.51;100.00;102528.97;5014133;28;20030;-73
2020/12/18 09:54:31;;;;;;;38.58;21.45;;;;;;;6.58;100.00;102529.16;5013545;28;20429;-74
2020/12/18 09:57:17;;;;;;;35.15;21.10;;;;;;;6.58;100.00;102523.06;5014868;28;20029;-74
2020/12/18 10:00:07;;;;;;;33.42;20.80;;;;;;;6.76;100.00;102523.56;5014310;28;20022;-73
2020/12/18 10:02:53;;;;;;;34.42;21.50;;;;;;;6.86;100.00;102525.56;5013657;28;20057;-74
2020/12/18 10:05:39;;;;;;;36.03;22.48;;;;;;;6.73;100.00;102524.38;5013986;28;20030;-73
2020/12/18 10:08:25;;;;;;;31.73;20.35;;;;;;;6.82;100.00;102521.09;5014030;28;20442;-74
2020/12/18 10:11:11;;;;;;;35.15;21.73;;;;;;;6.72;100.00;102516.50;5013882;28;20458;-74
2020/12/18 10:13:56;;;;;;;31.75;20.67;;;;;;;6.40;100.00;102519.97;5014653;28;20055;-73
2020/12/18 10:16:42;;;;;;;32.67;20.35;;;;;;;6.61;100.00;102525.75;5014837;28;20104;-74
2020/12/18 10:19:28;;;;;;;33.03;20.65;;;;;;;6.65;100.00;102519.78;5013827;28;20026;-71
2020/12/18 10:22:14;;;;;;;37.92;22.65;;;;;;;6.52;100.00;102520.31;5013714;28;20076;-72
2020/12/18 10:24:59;;;;;;;31.25;19.23;;;;;;;6.14;100.00;102521.81;5013472;28;20041;-72
2020/12/18 10:27:45;;;;;;;29.30;19.13;;;;;;;6.21;100.00;102515.97;5014249;28;20095;-72
2020/12/18 10:30:31;;;;;;;31.17;20.25;;;;;;;6.05;100.00;102521.56;5014997;28;20029;-72
2020/12/18 10:33:19;;;;;;;29.88;19.48;;;;;;;6.33;100.00;102518.91;5014883;28;20034;-72
2020/12/18 10:36:05;;;;;;;31.95;19.02;;;;;;;6.12;100.00;102510.50;5015590;28;20036;-73
2020/12/18 10:38:51;;;;;;;27.25;17.38;;;;;;;6.42;100.00;102510.44;5015031;28;20026;-72
2020/12/18 10:41:38;;;;;;;27.63;18.83;;;;;;;6.31;100.00;102511.91;5014068;28;20040;-74
2020/12/18 10:44:24;;;;;;;29.05;18.33;;;;;;;6.52;100.00;102502.06;5014311;28;20285;-74
2020/12/18 10:47:10;;;;;;;26.63;17.63;;;;;;;6.50;100.00;102502.03;5017601;28;20026;-74
2020/12/18 10:49:56;;;;;;;24.63;17.77;;;;;;;6.80;100.00;102494.16;5014420;28;20433;-73
2020/12/18 10:52:42;;;;;;;26.98;17.63;;;;;;;6.61;100.00;102494.50;5014515;28;20034;-75
2020/12/18 10:55:27;;;;;;;27.55;18.70;;;;;;;7.12;100.00;102493.25;5013565;28;20029;-74
2020/12/18 10:58:13;;;;;;;21.92;15.07;;;;;;;6.10;100.00;102495.69;5014790;28;20026;-72
2020/12/18 11:00:59;;;;;;;24.13;16.85;;;;;;;6.82;100.00;102488.13;5012773;28;20041;-72
2020/12/18 11:03:44;;;;;;;25.15;15.95;;;;;;;6.31;100.00;102488.47;5014550;28;20370;-73
2020/12/18 11:06:30;;;;;;;30.65;19.73;;;;;;;6.81;100.00;102486.38;5013590;28;20119;-73
2020/12/18 11:09:16;;;;;;;26.50;16.63;;;;;;;6.84;100.00;102486.47;5013564;28;20040;-74
2020/12/18 11:12:02;;;;;;;25.20;14.70;;;;;;;6.59;100.00;102481.44;5012505;28;20026;-75
2020/12/18 11:14:48;;;;;;;27.30;16.83;;;;;;;6.70;100.00;102481.72;5012733;28;20430;-73
2020/12/18 11:17:34;;;;;;;27.80;17.00;;;;;;;6.65;100.00;102481.63;5012876;28;20022;-74
2020/12/18 11:20:20;;;;;;;25.95;16.35;;;;;;;6.47;100.00;102475.91;5012639;28;20026;-72
2020/12/18 11:23:06;;;;;;;23.80;15.50;;;;;;;6.61;100.00;102481.47;5013289;28;20029;-72
2020/12/18 11:25:51;;;;;;;24.02;16.30;;;;;;;6.89;100.00;102477.03;5013315;28;20026;-74
2020/12/18 11:28:38;;;;;;;25.33;17.67;;;;;;;6.70;100.00;102476.50;5012211;28;20076;-73
2020/12/18 11:31:24;;;;;;;29.65;18.50;;;;;;;6.85;100.00;102469.09;5016308;28;20044;-73
2020/12/18 11:34:10;;;;;;;28.65;18.90;;;;;;;6.67;100.00;102476.44;5016459;28;20034;-73
2020/12/18 11:36:56;;;;;;;27.20;17.50;;;;;;;6.30;100.00;102468.50;5015800;28;20033;-73
2020/12/18 11:39:42;;;;;;;30.65;19.75;;;;;;;6.69;100.00;102474.75;5016460;28;20044;-73
2020/12/18 11:42:28;;;;;;;29.38;19.95;;;;;;;6.81;100.00;102475.06;5016196;28;20498;-73
2020/12/18 11:45:14;;;;;;;29.48;17.95;;;;;;;6.48;100.00;102472.47;5015661;28;20030;-73
2020/12/18 11:48:00;;;;;;;29.48;19.35;;;;;;;6.94;100.00;102478.03;5015631;28;20022;-73
2020/12/18 11:50:47;;;;;;;31.63;20.25;;;;;;;7.06;100.00;102470.50;5015837;28;20044;-72
2020/12/18 11:53:32;;;;;;;30.17;18.98;;;;;;;6.92;100.00;102476.22;5016852;28;20044;-74
2020/12/18 11:56:18;;;;;;;28.15;19.13;;;;;;;6.71;100.00;102468.72;5015661;28;20025;-72
2020/12/18 11:59:04;;;;;;;28.67;17.88;;;;;;;6.41;100.00;102467.94;5015107;28;20310;-71
2020/12/18 12:01:50;;;;;;;37.80;19.77;;;;;;;6.67;100.00;102473.84;5015324;28;20022;-73
2020/12/18 12:04:35;;;;;;;21.67;14.05;;;;;;;5.47;100.00;102479.84;5016482;28;20394;-72
2020/12/18 12:07:21;;;;;;;26.27;17.08;;;;;;;5.79;100.00;102473.03;5015200;28;20037;-72
2020/12/18 12:10:07;;;;;;;27.17;18.58;;;;;;;6.39;100.00;102473.94;5015459;28;20033;-73
2020/12/18 12:12:53;;;;;;;24.98;17.33;;;;;;;6.36;100.00;102468.66;5015230;28;20106;-72
2020/12/18 12:15:38;;;;;;;29.77;19.40;;;;;;;6.75;100.00;102467.13;5015199;28;20033;-73
2020/12/18 12:18:24;;;;;;;32.25;19.88;;;;;;;6.56;100.00;102463.16;5016207;28;20037;-72
2020/12/18 12:21:10;;;;;;;33.42;20.30;;;;;;;6.78;100.00;102470.66;5015283;28;20021;-74
2020/12/18 12:23:56;;;;;;;32.17;21.00;;;;;;;6.75;100.00;102472.31;5015244;28;20032;-74
2020/12/18 12:26:47;;;;;;;35.42;22.52;;;;;;;7.09;100.00;102481.03;5014996;28;20022;-72
2020/12/18 12:29:33;;;;;;;30.83;21.05;;;;;;;6.78;100.00;102472.38;5016118;28;20458;-73
2020/12/18 12:32:18;;;;;;;33.55;21.60;;;;;;;7.05;100.00;102476.56;5014847;28;20121;-73
2020/12/18 12:35:04;;;;;;;37.00;22.85;;;;;;;6.93;100.00;102476.28;5016174;28;20021;-73
2020/12/18 12:37:50;;;;;;;39.38;23.58;;;;;;;6.75;100.00;102470.56;5015019;28;20040;-72
2020/12/18 12:40:37;;;;;;;36.55;22.70;;;;;;;6.58;100.00;102468.38;5014739;28;20454;-72